Terminal Aerodrome Forecast
Issued by NWS

Home | Current Version | Previous Version | Text Only | Print | Product List | Glossary Off
Versions: 1 2 3 4 5 6 7 8 9 10 11 12 13 14 15 16 17

306
FTUS43 KMPX 202343 CCA
TAFAXN
TAF COR
KAXN 202343Z 2100/2124 06013G19KT 2SM -DZ BR OVC008
     FM210200 04010KT 1SM -DZ BR OVC007
     FM210700 01010KT 1SM -DZ BR OVC005
     FM211400 33014G21KT 4SM BR VCSH OVC009
     FM211900 32014G20KT P6SM VCSH OVC015=

USA.gov is the U.S. government's official web portal to all federal, state and local government web resources and services.